sensor_id;sensor_type;location;lat;lon;timestamp;P1;durP1;ratioP1;P2;durP2;ratioP2
16813;SDS011;8524;57.650;11.926;2022-09-24T00:02:25;2.73;;;2.53;;
16813;SDS011;8524;57.650;11.926;2022-09-24T00:04:53;3.70;;;2.70;;
16813;SDS011;8524;57.650;11.926;2022-09-24T00:07:20;2.70;;;2.50;;
16813;SDS011;8524;57.650;11.926;2022-09-24T00:09:47;2.97;;;2.50;;
16813;SDS011;8524;57.650;11.926;2022-09-24T00:12:13;2.97;;;2.30;;
16813;SDS011;8524;57.650;11.926;2022-09-24T00:14:41;3.07;;;2.73;;
16813;SDS011;8524;57.650;11.926;2022-09-24T00:17:08;2.90;;;2.70;;
16813;SDS011;8524;57.650;11.926;2022-09-24T00:19:35;4.27;;;3.47;;
16813;SDS011;8524;57.650;11.926;2022-09-24T00:22:03;2.83;;;2.30;;
16813;SDS011;8524;57.650;11.926;2022-09-24T00:24:30;3.03;;;2.73;;
16813;SDS011;8524;57.650;11.926;2022-09-24T00:27:10;4.13;;;2.90;;
16813;SDS011;8524;57.650;11.926;2022-09-24T00:29:37;4.03;;;2.87;;
16813;SDS011;8524;57.650;11.926;2022-09-24T00:32:04;3.40;;;2.80;;
16813;SDS011;8524;57.650;11.926;2022-09-24T00:34:31;4.10;;;3.10;;
16813;SDS011;8524;57.650;11.926;2022-09-24T00:36:59;3.80;;;2.80;;
16813;SDS011;8524;57.650;11.926;2022-09-24T00:39:27;4.27;;;3.20;;
16813;SDS011;8524;57.650;11.926;2022-09-24T00:41:54;3.40;;;3.00;;
16813;SDS011;8524;57.650;11.926;2022-09-24T00:47:23;4.80;;;2.83;;
16813;SDS011;8524;57.650;11.926;2022-09-24T00:49:55;3.60;;;3.20;;
16813;SDS011;8524;57.650;11.926;2022-09-24T00:52:33;4.57;;;2.90;;
16813;SDS011;8524;57.650;11.926;2022-09-24T00:55:04;3.70;;;3.30;;
16813;SDS011;8524;57.650;11.926;2022-09-24T00:57:31;5.33;;;3.07;;
16813;SDS011;8524;57.650;11.926;2022-09-24T00:59:59;5.10;;;3.30;;
16813;SDS011;8524;57.650;11.926;2022-09-24T01:02:26;4.17;;;3.20;;
16813;SDS011;8524;57.650;11.926;2022-09-24T01:04:53;3.80;;;3.23;;
16813;SDS011;8524;57.650;11.926;2022-09-24T01:07:20;3.17;;;2.80;;
16813;SDS011;8524;57.650;11.926;2022-09-24T01:09:47;3.50;;;3.20;;
16813;SDS011;8524;57.650;11.926;2022-09-24T01:12:17;3.87;;;3.43;;
16813;SDS011;8524;57.650;11.926;2022-09-24T01:14:56;4.30;;;3.50;;
16813;SDS011;8524;57.650;11.926;2022-09-24T01:17:34;5.93;;;3.77;;
16813;SDS011;8524;57.650;11.926;2022-09-24T01:20:27;3.67;;;2.90;;
16813;SDS011;8524;57.650;11.926;2022-09-24T01:26:16;5.77;;;3.40;;
16813;SDS011;8524;57.650;11.926;2022-09-24T01:31:47;4.43;;;2.93;;
16813;SDS011;8524;57.650;11.926;2022-09-24T01:34:19;4.00;;;3.13;;
16813;SDS011;8524;57.650;11.926;2022-09-24T01:36:52;4.27;;;3.10;;
16813;SDS011;8524;57.650;11.926;2022-09-24T01:39:22;3.90;;;3.50;;
16813;SDS011;8524;57.650;11.926;2022-09-24T01:41:49;4.50;;;3.43;;
16813;SDS011;8524;57.650;11.926;2022-09-24T01:44:18;6.17;;;3.30;;
16813;SDS011;8524;57.650;11.926;2022-09-24T01:46:46;3.20;;;2.67;;
16813;SDS011;8524;57.650;11.926;2022-09-24T01:49:13;4.80;;;3.50;;
16813;SDS011;8524;57.650;11.926;2022-09-24T01:51:41;3.40;;;3.10;;
16813;SDS011;8524;57.650;11.926;2022-09-24T01:54:15;3.10;;;2.80;;
16813;SDS011;8524;57.650;11.926;2022-09-24T01:56:46;5.23;;;3.30;;
16813;SDS011;8524;57.650;11.926;2022-09-24T01:59:21;4.50;;;3.13;;
16813;SDS011;8524;57.650;11.926;2022-09-24T02:01:53;4.47;;;3.10;;
16813;SDS011;8524;57.650;11.926;2022-09-24T02:04:24;3.83;;;3.30;;
16813;SDS011;8524;57.650;11.926;2022-09-24T02:06:53;5.47;;;3.40;;
16813;SDS011;8524;57.650;11.926;2022-09-24T02:09:29;4.10;;;3.10;;
16813;SDS011;8524;57.650;11.926;2022-09-24T02:11:59;3.37;;;3.03;;
16813;SDS011;8524;57.650;11.926;2022-09-24T02:14:33;3.80;;;3.50;;
16813;SDS011;8524;57.650;11.926;2022-09-24T02:17:05;3.57;;;3.10;;
16813;SDS011;8524;57.650;11.926;2022-09-24T02:19:33;3.70;;;3.10;;
16813;SDS011;8524;57.650;11.926;2022-09-24T02:22:03;3.63;;;3.00;;
16813;SDS011;8524;57.650;11.926;2022-09-24T02:24:33;3.23;;;2.93;;
16813;SDS011;8524;57.650;11.926;2022-09-24T02:27:06;4.33;;;2.87;;
16813;SDS011;8524;57.650;11.926;2022-09-24T02:29:35;3.33;;;3.03;;
16813;SDS011;8524;57.650;11.926;2022-09-24T02:32:02;4.03;;;3.40;;
16813;SDS011;8524;57.650;11.926;2022-09-24T02:34:34;3.80;;;3.03;;
16813;SDS011;8524;57.650;11.926;2022-09-24T02:37:05;3.53;;;3.23;;
16813;SDS011;8524;57.650;11.926;2022-09-24T02:39:33;3.37;;;2.63;;
16813;SDS011;8524;57.650;11.926;2022-09-24T02:42:00;4.33;;;3.13;;
16813;SDS011;8524;57.650;11.926;2022-09-24T02:44:29;2.90;;;2.70;;
16813;SDS011;8524;57.650;11.926;2022-09-24T02:46:57;2.77;;;2.50;;
16813;SDS011;8524;57.650;11.926;2022-09-24T02:49:25;3.57;;;2.93;;
16813;SDS011;8524;57.650;11.926;2022-09-24T02:51:51;3.07;;;2.70;;
16813;SDS011;8524;57.650;11.926;2022-09-24T02:54:19;2.87;;;2.60;;
16813;SDS011;8524;57.650;11.926;2022-09-24T02:56:48;3.13;;;2.80;;
16813;SDS011;8524;57.650;11.926;2022-09-24T02:59:14;2.87;;;2.23;;
16813;SDS011;8524;57.650;11.926;2022-09-24T03:01:41;3.07;;;2.47;;
16813;SDS011;8524;57.650;11.926;2022-09-24T03:04:10;3.47;;;2.97;;
16813;SDS011;8524;57.650;11.926;2022-09-24T03:06:37;2.60;;;2.40;;
16813;SDS011;8524;57.650;11.926;2022-09-24T03:09:04;3.37;;;2.70;;
16813;SDS011;8524;57.650;11.926;2022-09-24T03:11:31;2.87;;;2.67;;
16813;SDS011;8524;57.650;11.926;2022-09-24T03:13:59;3.57;;;2.67;;
16813;SDS011;8524;57.650;11.926;2022-09-24T03:16:26;3.07;;;2.70;;
16813;SDS011;8524;57.650;11.926;2022-09-24T03:18:53;4.40;;;2.53;;
16813;SDS011;8524;57.650;11.926;2022-09-24T03:21:22;2.43;;;2.23;;
16813;SDS011;8524;57.650;11.926;2022-09-24T03:23:48;3.53;;;2.20;;
16813;SDS011;8524;57.650;11.926;2022-09-24T03:26:16;3.03;;;2.73;;
16813;SDS011;8524;57.650;11.926;2022-09-24T03:28:43;2.73;;;2.40;;
16813;SDS011;8524;57.650;11.926;2022-09-24T03:31:09;3.90;;;2.37;;
16813;SDS011;8524;57.650;11.926;2022-09-24T03:33:36;3.23;;;2.93;;
16813;SDS011;8524;57.650;11.926;2022-09-24T03:36:06;3.27;;;2.83;;
16813;SDS011;8524;57.650;11.926;2022-09-24T03:38:36;2.93;;;2.50;;
16813;SDS011;8524;57.650;11.926;2022-09-24T03:41:04;2.57;;;2.37;;
16813;SDS011;8524;57.650;11.926;2022-09-24T03:43:32;3.63;;;2.77;;
16813;SDS011;8524;57.650;11.926;2022-09-24T03:45:59;2.87;;;2.57;;
16813;SDS011;8524;57.650;11.926;2022-09-24T03:48:27;2.90;;;2.30;;
16813;SDS011;8524;57.650;11.926;2022-09-24T03:50:54;2.80;;;2.30;;
16813;SDS011;8524;57.650;11.926;2022-09-24T03:53:21;4.30;;;2.93;;
16813;SDS011;8524;57.650;11.926;2022-09-24T03:55:53;2.60;;;2.40;;
16813;SDS011;8524;57.650;11.926;2022-09-24T03:58:21;2.97;;;2.77;;
16813;SDS011;8524;57.650;11.926;2022-09-24T04:00:49;3.30;;;2.60;;
16813;SDS011;8524;57.650;11.926;2022-09-24T04:03:17;2.40;;;2.20;;
16813;SDS011;8524;57.650;11.926;2022-09-24T04:05:45;2.70;;;2.50;;
16813;SDS011;8524;57.650;11.926;2022-09-24T04:08:12;3.23;;;2.40;;
16813;SDS011;8524;57.650;11.926;2022-09-24T04:10:38;2.33;;;2.13;;
16813;SDS011;8524;57.650;11.926;2022-09-24T04:13:07;3.57;;;2.17;;
16813;SDS011;8524;57.650;11.926;2022-09-24T04:15:33;3.23;;;2.93;;
16813;SDS011;8524;57.650;11.926;2022-09-24T04:18:00;3.10;;;2.80;;
16813;SDS011;8524;57.650;11.926;2022-09-24T04:20:28;2.50;;;2.30;;
16813;SDS011;8524;57.650;11.926;2022-09-24T04:22:55;2.43;;;2.20;;
16813;SDS011;8524;57.650;11.926;2022-09-24T04:25:24;2.33;;;2.10;;
16813;SDS011;8524;57.650;11.926;2022-09-24T04:27:52;2.23;;;2.03;;
16813;SDS011;8524;57.650;11.926;2022-09-24T04:30:21;3.27;;;2.30;;
16813;SDS011;8524;57.650;11.926;2022-09-24T04:32:49;3.03;;;2.63;;
16813;SDS011;8524;57.650;11.926;2022-09-24T04:35:16;2.70;;;2.50;;
16813;SDS011;8524;57.650;11.926;2022-09-24T04:37:44;3.53;;;2.03;;
16813;SDS011;8524;57.650;11.926;2022-09-24T04:40:11;2.90;;;2.17;;
16813;SDS011;8524;57.650;11.926;2022-09-24T04:42:40;2.43;;;2.10;;
16813;SDS011;8524;57.650;11.926;2022-09-24T04:45:09;1.70;;;1.60;;
16813;SDS011;8524;57.650;11.926;2022-09-24T04:47:38;3.50;;;2.30;;
16813;SDS011;8524;57.650;11.926;2022-09-24T04:50:06;4.27;;;3.00;;
16813;SDS011;8524;57.650;11.926;2022-09-24T04:52:35;2.70;;;2.50;;
16813;SDS011;8524;57.650;11.926;2022-09-24T04:55:02;2.20;;;2.10;;
16813;SDS011;8524;57.650;11.926;2022-09-24T04:57:30;2.77;;;2.00;;
16813;SDS011;8524;57.650;11.926;2022-09-24T04:59:59;2.53;;;2.33;;
16813;SDS011;8524;57.650;11.926;2022-09-24T05:02:26;2.87;;;2.30;;
16813;SDS011;8524;57.650;11.926;2022-09-24T05:04:54;2.93;;;2.27;;
16813;SDS011;8524;57.650;11.926;2022-09-24T05:07:21;2.63;;;2.43;;
16813;SDS011;8524;57.650;11.926;2022-09-24T05:09:48;3.20;;;2.13;;
16813;SDS011;8524;57.650;11.926;2022-09-24T05:12:15;2.87;;;2.37;;
16813;SDS011;8524;57.650;11.926;2022-09-24T05:14:44;3.30;;;2.50;;
16813;SDS011;8524;57.650;11.926;2022-09-24T05:17:11;2.13;;;2.00;;
16813;SDS011;8524;57.650;11.926;2022-09-24T05:19:38;2.70;;;2.50;;
16813;SDS011;8524;57.650;11.926;2022-09-24T05:22:06;3.33;;;2.70;;
16813;SDS011;8524;57.650;11.926;2022-09-24T05:24:33;4.30;;;2.80;;
16813;SDS011;8524;57.650;11.926;2022-09-24T05:27:00;2.40;;;2.20;;
16813;SDS011;8524;57.650;11.926;2022-09-24T05:29:36;2.77;;;2.53;;
16813;SDS011;8524;57.650;11.926;2022-09-24T05:32:04;2.70;;;2.10;;
16813;SDS011;8524;57.650;11.926;2022-09-24T05:34:32;2.60;;;2.40;;
16813;SDS011;8524;57.650;11.926;2022-09-24T05:37:00;2.53;;;2.17;;
16813;SDS011;8524;57.650;11.926;2022-09-24T05:39:29;2.50;;;2.27;;
16813;SDS011;8524;57.650;11.926;2022-09-24T05:41:56;3.00;;;2.33;;
16813;SDS011;8524;57.650;11.926;2022-09-24T05:44:23;2.10;;;2.00;;
16813;SDS011;8524;57.650;11.926;2022-09-24T05:46:50;2.57;;;2.07;;
16813;SDS011;8524;57.650;11.926;2022-09-24T05:49:17;2.93;;;2.63;;
16813;SDS011;8524;57.650;11.926;2022-09-24T05:51:46;2.83;;;2.10;;
16813;SDS011;8524;57.650;11.926;2022-09-24T05:54:14;2.67;;;2.23;;
16813;SDS011;8524;57.650;11.926;2022-09-24T05:56:42;3.03;;;1.90;;
16813;SDS011;8524;57.650;11.926;2022-09-24T05:59:09;2.60;;;2.27;;
16813;SDS011;8524;57.650;11.926;2022-09-24T06:01:37;3.33;;;2.23;;
16813;SDS011;8524;57.650;11.926;2022-09-24T06:04:04;3.33;;;2.10;;
16813;SDS011;8524;57.650;11.926;2022-09-24T06:06:30;3.80;;;2.30;;
16813;SDS011;8524;57.650;11.926;2022-09-24T06:08:58;2.73;;;2.50;;
16813;SDS011;8524;57.650;11.926;2022-09-24T06:11:25;2.67;;;2.13;;
16813;SDS011;8524;57.650;11.926;2022-09-24T06:13:53;3.03;;;2.20;;
16813;SDS011;8524;57.650;11.926;2022-09-24T06:16:20;2.30;;;2.10;;
16813;SDS011;8524;57.650;11.926;2022-09-24T06:18:47;2.17;;;2.00;;
16813;SDS011;8524;57.650;11.926;2022-09-24T06:21:14;2.53;;;1.90;;
16813;SDS011;8524;57.650;11.926;2022-09-24T06:23:42;2.67;;;2.47;;
16813;SDS011;8524;57.650;11.926;2022-09-24T06:26:11;3.53;;;2.60;;
16813;SDS011;8524;57.650;11.926;2022-09-24T06:28:39;3.13;;;2.40;;
16813;SDS011;8524;57.650;11.926;2022-09-24T06:31:08;2.27;;;1.97;;
16813;SDS011;8524;57.650;11.926;2022-09-24T06:33:36;4.17;;;2.60;;
16813;SDS011;8524;57.650;11.926;2022-09-24T06:36:04;2.40;;;2.10;;
16813;SDS011;8524;57.650;11.926;2022-09-24T06:38:32;3.40;;;2.27;;
16813;SDS011;8524;57.650;11.926;2022-09-24T06:41:00;3.30;;;2.60;;
16813;SDS011;8524;57.650;11.926;2022-09-24T06:43:28;2.20;;;2.00;;
16813;SDS011;8524;57.650;11.926;2022-09-24T06:45:56;4.13;;;2.67;;
16813;SDS011;8524;57.650;11.926;2022-09-24T06:48:26;2.90;;;2.60;;
16813;SDS011;8524;57.650;11.926;2022-09-24T06:50:53;2.97;;;2.50;;
16813;SDS011;8524;57.650;11.926;2022-09-24T06:53:21;3.13;;;2.43;;
16813;SDS011;8524;57.650;11.926;2022-09-24T06:55:48;2.50;;;2.30;;
16813;SDS011;8524;57.650;11.926;2022-09-24T06:58:16;2.67;;;2.47;;
16813;SDS011;8524;57.650;11.926;2022-09-24T07:00:49;3.67;;;2.53;;
16813;SDS011;8524;57.650;11.926;2022-09-24T07:03:18;2.57;;;2.27;;
16813;SDS011;8524;57.650;11.926;2022-09-24T07:05:47;2.70;;;2.50;;
16813;SDS011;8524;57.650;11.926;2022-09-24T07:08:14;3.40;;;2.83;;
16813;SDS011;8524;57.650;11.926;2022-09-24T07:10:42;3.63;;;2.90;;
16813;SDS011;8524;57.650;11.926;2022-09-24T07:13:10;3.00;;;2.80;;
16813;SDS011;8524;57.650;11.926;2022-09-24T07:15:38;2.97;;;2.77;;
16813;SDS011;8524;57.650;11.926;2022-09-24T07:18:05;3.30;;;2.83;;
16813;SDS011;8524;57.650;11.926;2022-09-24T07:20:32;3.23;;;2.90;;
16813;SDS011;8524;57.650;11.926;2022-09-24T07:23:02;3.37;;;2.50;;
16813;SDS011;8524;57.650;11.926;2022-09-24T07:25:29;3.97;;;2.87;;
16813;SDS011;8524;57.650;11.926;2022-09-24T07:27:59;2.97;;;2.60;;
16813;SDS011;8524;57.650;11.926;2022-09-24T07:30:27;4.17;;;2.67;;
16813;SDS011;8524;57.650;11.926;2022-09-24T07:32:54;4.00;;;2.80;;
16813;SDS011;8524;57.650;11.926;2022-09-24T07:35:21;3.13;;;2.57;;
16813;SDS011;8524;57.650;11.926;2022-09-24T07:37:54;2.90;;;2.70;;
16813;SDS011;8524;57.650;11.926;2022-09-24T07:40:23;4.57;;;3.13;;
16813;SDS011;8524;57.650;11.926;2022-09-24T07:42:50;3.30;;;3.00;;
16813;SDS011;8524;57.650;11.926;2022-09-24T07:45:18;3.27;;;2.97;;
16813;SDS011;8524;57.650;11.926;2022-09-24T07:47:45;3.10;;;2.40;;
16813;SDS011;8524;57.650;11.926;2022-09-24T07:50:12;3.13;;;2.77;;
16813;SDS011;8524;57.650;11.926;2022-09-24T07:52:39;2.60;;;2.40;;
16813;SDS011;8524;57.650;11.926;2022-09-24T07:55:06;3.67;;;2.77;;
16813;SDS011;8524;57.650;11.926;2022-09-24T07:57:35;3.50;;;2.90;;
16813;SDS011;8524;57.650;11.926;2022-09-24T08:00:03;3.07;;;2.40;;
16813;SDS011;8524;57.650;11.926;2022-09-24T08:02:31;2.83;;;2.50;;
16813;SDS011;8524;57.650;11.926;2022-09-24T08:04:58;3.13;;;2.40;;
16813;SDS011;8524;57.650;11.926;2022-09-24T08:07:26;3.87;;;2.30;;
16813;SDS011;8524;57.650;11.926;2022-09-24T08:09:53;2.67;;;2.47;;
16813;SDS011;8524;57.650;11.926;2022-09-24T08:12:20;3.10;;;2.70;;
16813;SDS011;8524;57.650;11.926;2022-09-24T08:14:51;3.17;;;2.63;;
16813;SDS011;8524;57.650;11.926;2022-09-24T08:17:18;2.43;;;2.23;;
16813;SDS011;8524;57.650;11.926;2022-09-24T08:19:45;3.10;;;2.87;;
16813;SDS011;8524;57.650;11.926;2022-09-24T08:22:12;2.57;;;2.30;;
16813;SDS011;8524;57.650;11.926;2022-09-24T08:24:39;2.90;;;2.70;;
16813;SDS011;8524;57.650;11.926;2022-09-24T08:27:06;3.20;;;3.00;;
16813;SDS011;8524;57.650;11.926;2022-09-24T08:29:33;4.10;;;3.00;;
16813;SDS011;8524;57.650;11.926;2022-09-24T08:32:01;2.70;;;2.40;;
16813;SDS011;8524;57.650;11.926;2022-09-24T08:34:28;3.37;;;2.50;;
16813;SDS011;8524;57.650;11.926;2022-09-24T08:36:55;3.47;;;2.57;;
16813;SDS011;8524;57.650;11.926;2022-09-24T08:39:22;2.60;;;2.33;;
16813;SDS011;8524;57.650;11.926;2022-09-24T08:41:50;3.57;;;2.63;;
16813;SDS011;8524;57.650;11.926;2022-09-24T08:44:22;2.90;;;2.70;;
16813;SDS011;8524;57.650;11.926;2022-09-24T08:47:13;2.50;;;2.30;;
16813;SDS011;8524;57.650;11.926;2022-09-24T08:49:49;3.10;;;2.63;;
16813;SDS011;8524;57.650;11.926;2022-09-24T08:52:25;2.40;;;2.00;;
16813;SDS011;8524;57.650;11.926;2022-09-24T08:55:03;3.10;;;2.53;;
16813;SDS011;8524;57.650;11.926;2022-09-24T08:57:34;4.30;;;2.83;;
16813;SDS011;8524;57.650;11.926;2022-09-24T09:00:06;3.23;;;2.30;;
16813;SDS011;8524;57.650;11.926;2022-09-24T09:02:40;3.30;;;2.90;;
16813;SDS011;8524;57.650;11.926;2022-09-24T09:05:17;3.30;;;2.70;;
16813;SDS011;8524;57.650;11.926;2022-09-24T09:07:53;3.23;;;2.87;;
16813;SDS011;8524;57.650;11.926;2022-09-24T09:10:26;5.50;;;2.80;;
16813;SDS011;8524;57.650;11.926;2022-09-24T09:12:59;3.23;;;2.70;;
16813;SDS011;8524;57.650;11.926;2022-09-24T09:15:32;3.07;;;2.80;;
16813;SDS011;8524;57.650;11.926;2022-09-24T09:18:06;3.57;;;2.90;;
16813;SDS011;8524;57.650;11.926;2022-09-24T09:20:40;3.10;;;2.60;;
16813;SDS011;8524;57.650;11.926;2022-09-24T09:23:12;2.43;;;2.23;;
16813;SDS011;8524;57.650;11.926;2022-09-24T09:25:43;2.70;;;2.33;;
16813;SDS011;8524;57.650;11.926;2022-09-24T09:28:15;2.90;;;2.60;;
16813;SDS011;8524;57.650;11.926;2022-09-24T09:30:45;2.83;;;2.60;;
16813;SDS011;8524;57.650;11.926;2022-09-24T09:33:26;2.83;;;2.50;;
16813;SDS011;8524;57.650;11.926;2022-09-24T09:36:04;2.90;;;2.43;;
16813;SDS011;8524;57.650;11.926;2022-09-24T09:38:46;2.87;;;2.57;;
16813;SDS011;8524;57.650;11.926;2022-09-24T09:41:19;2.97;;;2.70;;
16813;SDS011;8524;57.650;11.926;2022-09-24T09:43:52;4.03;;;2.70;;
16813;SDS011;8524;57.650;11.926;2022-09-24T09:46:25;3.20;;;2.90;;
16813;SDS011;8524;57.650;11.926;2022-09-24T09:48:58;4.17;;;3.00;;
16813;SDS011;8524;57.650;11.926;2022-09-24T09:51:30;3.47;;;3.17;;
16813;SDS011;8524;57.650;11.926;2022-09-24T09:54:02;3.10;;;2.80;;
16813;SDS011;8524;57.650;11.926;2022-09-24T09:56:30;4.03;;;2.93;;
16813;SDS011;8524;57.650;11.926;2022-09-24T09:59:00;3.43;;;3.13;;
16813;SDS011;8524;57.650;11.926;2022-09-24T10:01:31;3.00;;;2.60;;
16813;SDS011;8524;57.650;11.926;2022-09-24T10:04:02;3.17;;;2.57;;
16813;SDS011;8524;57.650;11.926;2022-09-24T10:06:30;3.20;;;2.37;;
16813;SDS011;8524;57.650;11.926;2022-09-24T10:09:05;4.50;;;3.20;;
16813;SDS011;8524;57.650;11.926;2022-09-24T10:11:34;3.73;;;3.40;;
16813;SDS011;8524;57.650;11.926;2022-09-24T10:14:01;4.13;;;3.80;;
16813;SDS011;8524;57.650;11.926;2022-09-24T10:16:28;4.17;;;3.07;;
16813;SDS011;8524;57.650;11.926;2022-09-24T10:18:55;3.57;;;3.00;;
16813;SDS011;8524;57.650;11.926;2022-09-24T10:21:25;3.93;;;3.50;;
16813;SDS011;8524;57.650;11.926;2022-09-24T10:23:58;6.27;;;3.80;;
16813;SDS011;8524;57.650;11.926;2022-09-24T10:26:33;3.77;;;2.87;;
16813;SDS011;8524;57.650;11.926;2022-09-24T10:29:02;4.40;;;4.00;;
16813;SDS011;8524;57.650;11.926;2022-09-24T10:31:47;4.17;;;3.70;;
16813;SDS011;8524;57.650;11.926;2022-09-24T10:34:18;4.10;;;3.70;;
16813;SDS011;8524;57.650;11.926;2022-09-24T10:36:50;4.47;;;3.70;;
16813;SDS011;8524;57.650;11.926;2022-09-24T10:39:19;5.20;;;3.40;;
16813;SDS011;8524;57.650;11.926;2022-09-24T10:41:47;4.23;;;3.83;;
16813;SDS011;8524;57.650;11.926;2022-09-24T10:44:15;4.13;;;3.73;;
16813;SDS011;8524;57.650;11.926;2022-09-24T10:46:50;3.50;;;3.20;;
16813;SDS011;8524;57.650;11.926;2022-09-24T10:49:32;4.23;;;3.93;;
16813;SDS011;8524;57.650;11.926;2022-09-24T10:52:08;5.03;;;4.23;;
16813;SDS011;8524;57.650;11.926;2022-09-24T10:54:49;5.23;;;4.63;;
16813;SDS011;8524;57.650;11.926;2022-09-24T10:57:23;6.27;;;5.40;;
16813;SDS011;8524;57.650;11.926;2022-09-24T11:00:00;6.37;;;5.87;;
16813;SDS011;8524;57.650;11.926;2022-09-24T11:02:39;5.53;;;5.00;;
16813;SDS011;8524;57.650;11.926;2022-09-24T11:05:19;6.93;;;6.27;;
16813;SDS011;8524;57.650;11.926;2022-09-24T11:10:49;6.93;;;6.23;;
16813;SDS011;8524;57.650;11.926;2022-09-24T11:13:30;6.60;;;4.77;;
16813;SDS011;8524;57.650;11.926;2022-09-24T11:16:13;7.00;;;5.77;;
16813;SDS011;8524;57.650;11.926;2022-09-24T11:18:57;6.77;;;6.07;;
16813;SDS011;8524;57.650;11.926;2022-09-24T11:21:28;6.83;;;5.90;;
16813;SDS011;8524;57.650;11.926;2022-09-24T11:24:13;6.23;;;5.37;;
16813;SDS011;8524;57.650;11.926;2022-09-24T11:27:07;6.37;;;5.57;;
16813;SDS011;8524;57.650;11.926;2022-09-24T11:29:51;7.00;;;5.57;;
16813;SDS011;8524;57.650;11.926;2022-09-24T11:32:28;6.27;;;5.67;;
16813;SDS011;8524;57.650;11.926;2022-09-24T11:35:04;6.87;;;5.83;;
16813;SDS011;8524;57.650;11.926;2022-09-24T11:37:57;6.00;;;5.10;;
16813;SDS011;8524;57.650;11.926;2022-09-24T11:40:34;7.47;;;6.03;;
16813;SDS011;8524;57.650;11.926;2022-09-24T11:43:25;5.63;;;5.13;;
16813;SDS011;8524;57.650;11.926;2022-09-24T11:46:16;5.63;;;5.07;;
16813;SDS011;8524;57.650;11.926;2022-09-24T11:48:57;5.87;;;5.27;;
16813;SDS011;8524;57.650;11.926;2022-09-24T11:51:38;5.23;;;4.73;;
16813;SDS011;8524;57.650;11.926;2022-09-24T11:54:16;5.23;;;4.30;;
16813;SDS011;8524;57.650;11.926;2022-09-24T11:56:50;5.70;;;4.70;;
16813;SDS011;8524;57.650;11.926;2022-09-24T11:59:26;5.40;;;4.77;;
16813;SDS011;8524;57.650;11.926;2022-09-24T12:02:02;6.30;;;5.30;;
16813;SDS011;8524;57.650;11.926;2022-09-24T12:04:39;6.20;;;5.60;;
16813;SDS011;8524;57.650;11.926;2022-09-24T12:07:21;7.30;;;5.47;;
16813;SDS011;8524;57.650;11.926;2022-09-24T12:09:54;6.20;;;5.60;;
16813;SDS011;8524;57.650;11.926;2022-09-24T12:12:28;5.43;;;5.03;;
16813;SDS011;8524;57.650;11.926;2022-09-24T12:14:59;6.60;;;4.40;;
16813;SDS011;8524;57.650;11.926;2022-09-24T12:17:31;6.83;;;5.53;;
16813;SDS011;8524;57.650;11.926;2022-09-24T12:20:05;5.10;;;4.70;;
16813;SDS011;8524;57.650;11.926;2022-09-24T12:22:42;5.90;;;5.20;;
16813;SDS011;8524;57.650;11.926;2022-09-24T12:25:11;5.57;;;4.80;;
16813;SDS011;8524;57.650;11.926;2022-09-24T12:27:40;4.93;;;4.30;;
16813;SDS011;8524;57.650;11.926;2022-09-24T12:30:14;5.87;;;4.90;;
16813;SDS011;8524;57.650;11.926;2022-09-24T12:33:08;5.17;;;4.53;;
16813;SDS011;8524;57.650;11.926;2022-09-24T12:35:44;5.50;;;4.50;;
16813;SDS011;8524;57.650;11.926;2022-09-24T12:38:21;3.77;;;3.40;;
16813;SDS011;8524;57.650;11.926;2022-09-24T12:41:02;4.33;;;3.93;;
16813;SDS011;8524;57.650;11.926;2022-09-24T12:43:54;5.90;;;4.20;;
16813;SDS011;8524;57.650;11.926;2022-09-24T12:46:24;5.43;;;4.33;;
16813;SDS011;8524;57.650;11.926;2022-09-24T12:48:54;5.50;;;5.00;;
16813;SDS011;8524;57.650;11.926;2022-09-24T12:51:22;4.57;;;3.93;;
16813;SDS011;8524;57.650;11.926;2022-09-24T12:53:57;4.23;;;3.83;;
16813;SDS011;8524;57.650;11.926;2022-09-24T12:56:26;5.10;;;4.53;;
16813;SDS011;8524;57.650;11.926;2022-09-24T12:58:56;5.70;;;5.10;;
16813;SDS011;8524;57.650;11.926;2022-09-24T13:01:27;7.03;;;4.30;;
16813;SDS011;8524;57.650;11.926;2022-09-24T13:04:03;4.50;;;4.10;;
16813;SDS011;8524;57.650;11.926;2022-09-24T13:06:50;5.80;;;4.83;;
16813;SDS011;8524;57.650;11.926;2022-09-24T13:09:28;4.73;;;3.60;;
16813;SDS011;8524;57.650;11.926;2022-09-24T13:12:02;4.80;;;4.00;;
16813;SDS011;8524;57.650;11.926;2022-09-24T13:14:32;5.00;;;4.50;;
16813;SDS011;8524;57.650;11.926;2022-09-24T13:17:03;5.50;;;3.90;;
16813;SDS011;8524;57.650;11.926;2022-09-24T13:19:32;5.00;;;3.53;;
16813;SDS011;8524;57.650;11.926;2022-09-24T13:22:02;4.43;;;3.93;;
16813;SDS011;8524;57.650;11.926;2022-09-24T13:24:31;4.37;;;3.83;;
16813;SDS011;8524;57.650;11.926;2022-09-24T13:27:08;4.73;;;4.27;;
16813;SDS011;8524;57.650;11.926;2022-09-24T13:29:47;4.80;;;3.67;;
16813;SDS011;8524;57.650;11.926;2022-09-24T13:32:25;4.17;;;3.50;;
16813;SDS011;8524;57.650;11.926;2022-09-24T13:34:53;3.60;;;3.30;;
16813;SDS011;8524;57.650;11.926;2022-09-24T13:37:21;4.03;;;3.40;;
16813;SDS011;8524;57.650;11.926;2022-09-24T13:39:57;4.33;;;3.93;;
16813;SDS011;8524;57.650;11.926;2022-09-24T13:42:30;3.43;;;2.97;;
16813;SDS011;8524;57.650;11.926;2022-09-24T13:45:02;4.90;;;3.80;;
16813;SDS011;8524;57.650;11.926;2022-09-24T13:47:33;5.27;;;4.40;;
16813;SDS011;8524;57.650;11.926;2022-09-24T13:50:05;5.47;;;3.83;;
16813;SDS011;8524;57.650;11.926;2022-09-24T13:52:34;4.10;;;3.70;;
16813;SDS011;8524;57.650;11.926;2022-09-24T13:55:05;4.00;;;3.60;;
16813;SDS011;8524;57.650;11.926;2022-09-24T13:57:41;4.23;;;3.73;;
16813;SDS011;8524;57.650;11.926;2022-09-24T14:00:14;5.27;;;3.83;;
16813;SDS011;8524;57.650;11.926;2022-09-24T14:02:44;4.73;;;3.90;;
16813;SDS011;8524;57.650;11.926;2022-09-24T14:05:18;3.87;;;3.47;;
16813;SDS011;8524;57.650;11.926;2022-09-24T14:10:39;4.73;;;4.23;;
16813;SDS011;8524;57.650;11.926;2022-09-24T14:13:09;5.47;;;3.90;;
16813;SDS011;8524;57.650;11.926;2022-09-24T14:15:52;4.20;;;3.40;;
16813;SDS011;8524;57.650;11.926;2022-09-24T14:18:20;6.10;;;3.77;;
16813;SDS011;8524;57.650;11.926;2022-09-24T14:20:49;4.03;;;3.70;;
16813;SDS011;8524;57.650;11.926;2022-09-24T14:23:21;3.70;;;3.30;;
16813;SDS011;8524;57.650;11.926;2022-09-24T14:25:50;5.63;;;4.33;;
16813;SDS011;8524;57.650;11.926;2022-09-24T14:28:18;4.97;;;4.47;;
16813;SDS011;8524;57.650;11.926;2022-09-24T14:30:47;4.30;;;3.90;;
16813;SDS011;8524;57.650;11.926;2022-09-24T14:33:18;4.40;;;4.00;;
16813;SDS011;8524;57.650;11.926;2022-09-24T14:35:49;4.63;;;4.23;;
16813;SDS011;8524;57.650;11.926;2022-09-24T14:38:19;4.67;;;4.20;;
16813;SDS011;8524;57.650;11.926;2022-09-24T14:40:49;4.77;;;4.37;;
16813;SDS011;8524;57.650;11.926;2022-09-24T14:43:21;4.03;;;3.63;;
16813;SDS011;8524;57.650;11.926;2022-09-24T14:45:59;5.07;;;4.20;;
16813;SDS011;8524;57.650;11.926;2022-09-24T14:48:32;4.73;;;4.27;;
16813;SDS011;8524;57.650;11.926;2022-09-24T14:51:00;4.00;;;3.37;;
16813;SDS011;8524;57.650;11.926;2022-09-24T14:53:30;4.93;;;4.47;;
16813;SDS011;8524;57.650;11.926;2022-09-24T14:55:58;4.27;;;3.40;;
16813;SDS011;8524;57.650;11.926;2022-09-24T14:58:33;4.43;;;3.47;;
16813;SDS011;8524;57.650;11.926;2022-09-24T15:01:04;3.97;;;3.60;;
16813;SDS011;8524;57.650;11.926;2022-09-24T15:03:40;5.57;;;3.90;;
16813;SDS011;8524;57.650;11.926;2022-09-24T15:06:13;4.87;;;3.70;;
16813;SDS011;8524;57.650;11.926;2022-09-24T15:08:50;4.53;;;3.87;;
16813;SDS011;8524;57.650;11.926;2022-09-24T15:11:23;3.57;;;3.27;;
16813;SDS011;8524;57.650;11.926;2022-09-24T15:13:56;3.67;;;2.67;;
16813;SDS011;8524;57.650;11.926;2022-09-24T15:16:28;4.87;;;3.70;;
16813;SDS011;8524;57.650;11.926;2022-09-24T15:19:00;4.17;;;3.20;;
16813;SDS011;8524;57.650;11.926;2022-09-24T15:21:39;3.73;;;2.90;;
16813;SDS011;8524;57.650;11.926;2022-09-24T15:24:06;3.90;;;3.50;;
16813;SDS011;8524;57.650;11.926;2022-09-24T15:26:34;3.83;;;3.20;;